Terminal Aerodrome Forecast
Issued by NWS

Home | Current Version | Previous Version | Text Only | Print | Product List | Glossary On
Versions: 1 2 3 4 5 6 7 8 9 10 11 12
000
FTUS46 KLOX 262300
TAFPMD
TAF
KPMD 262331Z 2700/2724 31012KT P6SM SCT250
     FM270400 28008KT P6SM SCT250
     FM271800 27012KT P6SM BKN100
     FM272100 26018G28KT P6SM BKN080=

USA.gov is the U.S. government's official web portal to all federal, state and local government web resources and services.